sensor_id;sensor_type;location;lat;lon;timestamp;temperature;humidity
831;DHT22;397;50.564;7.272;2023-02-22T00:01:38;5.70;99.90
831;DHT22;397;50.564;7.272;2023-02-22T00:04:09;5.80;99.90
831;DHT22;397;50.564;7.272;2023-02-22T00:06:37;5.70;99.90
831;DHT22;397;50.564;7.272;2023-02-22T00:09:04;5.80;99.90
831;DHT22;397;50.564;7.272;2023-02-22T00:11:34;5.80;99.90
831;DHT22;397;50.564;7.272;2023-02-22T00:14:01;5.80;99.90
831;DHT22;397;50.564;7.272;2023-02-22T00:16:29;5.60;99.90
831;DHT22;397;50.564;7.272;2023-02-22T00:18:57;5.50;99.90
831;DHT22;397;50.564;7.272;2023-02-22T00:21:24;5.60;99.90
831;DHT22;397;50.564;7.272;2023-02-22T00:23:52;5.70;99.90
831;DHT22;397;50.564;7.272;2023-02-22T00:26:21;5.70;99.90
831;DHT22;397;50.564;7.272;2023-02-22T00:28:51;5.70;99.90
831;DHT22;397;50.564;7.272;2023-02-22T00:31:20;5.40;99.90
831;DHT22;397;50.564;7.272;2023-02-22T00:33:47;5.20;99.90
831;DHT22;397;50.564;7.272;2023-02-22T00:36:15;5.30;99.90
831;DHT22;397;50.564;7.272;2023-02-22T00:38:42;5.30;99.90
831;DHT22;397;50.564;7.272;2023-02-22T00:41:11;5.40;99.90
831;DHT22;397;50.564;7.272;2023-02-22T00:43:38;5.40;99.90
831;DHT22;397;50.564;7.272;2023-02-22T00:46:06;5.40;99.90
831;DHT22;397;50.564;7.272;2023-02-22T00:48:34;5.20;99.90
831;DHT22;397;50.564;7.272;2023-02-22T00:51:01;5.20;99.90
831;DHT22;397;50.564;7.272;2023-02-22T00:53:29;5.20;99.90
831;DHT22;397;50.564;7.272;2023-02-22T00:55:57;5.20;99.90
831;DHT22;397;50.564;7.272;2023-02-22T00:58:24;5.20;99.90
831;DHT22;397;50.564;7.272;2023-02-22T01:00:52;5.20;99.90
831;DHT22;397;50.564;7.272;2023-02-22T01:03:19;5.20;99.90
831;DHT22;397;50.564;7.272;2023-02-22T01:05:47;5.10;99.90
831;DHT22;397;50.564;7.272;2023-02-22T01:08:16;5.10;99.90
831;DHT22;397;50.564;7.272;2023-02-22T01:10:44;5.10;99.90
831;DHT22;397;50.564;7.272;2023-02-22T01:13:12;4.90;99.90
831;DHT22;397;50.564;7.272;2023-02-22T01:15:41;4.80;99.90
831;DHT22;397;50.564;7.272;2023-02-22T01:18:11;4.90;99.90
831;DHT22;397;50.564;7.272;2023-02-22T01:20:38;5.00;99.90
831;DHT22;397;50.564;7.272;2023-02-22T01:23:06;5.00;99.90
831;DHT22;397;50.564;7.272;2023-02-22T01:25:35;5.10;99.90
831;DHT22;397;50.564;7.272;2023-02-22T01:28:05;5.20;99.90
831;DHT22;397;50.564;7.272;2023-02-22T01:30:34;5.10;99.90
831;DHT22;397;50.564;7.272;2023-02-22T01:33:04;5.00;99.90
831;DHT22;397;50.564;7.272;2023-02-22T01:35:34;4.90;99.90
831;DHT22;397;50.564;7.272;2023-02-22T01:38:02;4.80;99.90
831;DHT22;397;50.564;7.272;2023-02-22T01:40:35;4.80;99.90
831;DHT22;397;50.564;7.272;2023-02-22T01:43:05;4.80;99.90
831;DHT22;397;50.564;7.272;2023-02-22T01:45:41;4.80;99.90
831;DHT22;397;50.564;7.272;2023-02-22T01:50:40;4.90;99.90
831;DHT22;397;50.564;7.272;2023-02-22T01:53:08;4.80;99.90
831;DHT22;397;50.564;7.272;2023-02-22T01:55:38;4.80;99.90
831;DHT22;397;50.564;7.272;2023-02-22T01:58:06;4.90;99.90
831;DHT22;397;50.564;7.272;2023-02-22T02:00:34;4.90;99.90
831;DHT22;397;50.564;7.272;2023-02-22T02:03:06;4.80;99.90
831;DHT22;397;50.564;7.272;2023-02-22T02:05:34;4.80;99.90
831;DHT22;397;50.564;7.272;2023-02-22T02:10:54;4.70;99.90
831;DHT22;397;50.564;7.272;2023-02-22T02:13:25;4.60;99.90
831;DHT22;397;50.564;7.272;2023-02-22T02:15:54;4.60;99.90
831;DHT22;397;50.564;7.272;2023-02-22T02:18:22;4.60;99.90
831;DHT22;397;50.564;7.272;2023-02-22T02:21:24;4.50;99.90
831;DHT22;397;50.564;7.272;2023-02-22T02:26:54;4.30;99.90
831;DHT22;397;50.564;7.272;2023-02-22T02:29:43;4.30;99.90
831;DHT22;397;50.564;7.272;2023-02-22T02:41:08;4.50;99.90
831;DHT22;397;50.564;7.272;2023-02-22T02:42:54;4.50;99.90
831;DHT22;397;50.564;7.272;2023-02-22T02:45:27;4.60;99.90
831;DHT22;397;50.564;7.272;2023-02-22T02:47:56;4.60;99.90
831;DHT22;397;50.564;7.272;2023-02-22T02:50:30;4.60;99.90
831;DHT22;397;50.564;7.272;2023-02-22T02:53:00;4.70;99.90
831;DHT22;397;50.564;7.272;2023-02-22T02:55:32;4.70;99.90
831;DHT22;397;50.564;7.272;2023-02-22T02:58:04;4.50;99.90
831;DHT22;397;50.564;7.272;2023-02-22T03:00:38;4.50;99.90
831;DHT22;397;50.564;7.272;2023-02-22T03:03:32;4.40;99.90
831;DHT22;397;50.564;7.272;2023-02-22T03:08:54;4.40;99.90
831;DHT22;397;50.564;7.272;2023-02-22T03:11:25;4.40;99.90
831;DHT22;397;50.564;7.272;2023-02-22T03:14:10;4.40;99.90
831;DHT22;397;50.564;7.272;2023-02-22T03:17:25;4.30;99.90
831;DHT22;397;50.564;7.272;2023-02-22T03:20:00;4.20;99.90
831;DHT22;397;50.564;7.272;2023-02-22T03:22:51;4.20;99.90
831;DHT22;397;50.564;7.272;2023-02-22T03:25:33;4.20;99.90
831;DHT22;397;50.564;7.272;2023-02-22T03:28:03;4.10;99.90
831;DHT22;397;50.564;7.272;2023-02-22T03:30:39;4.10;99.90
831;DHT22;397;50.564;7.272;2023-02-22T03:33:06;4.20;99.90
831;DHT22;397;50.564;7.272;2023-02-22T03:35:46;4.20;99.90
831;DHT22;397;50.564;7.272;2023-02-22T03:38:10;4.30;99.90
831;DHT22;397;50.564;7.272;2023-02-22T03:40:40;4.30;99.90
831;DHT22;397;50.564;7.272;2023-02-22T03:43:27;4.30;99.90
831;DHT22;397;50.564;7.272;2023-02-22T03:45:54;4.30;99.90
831;DHT22;397;50.564;7.272;2023-02-22T03:48:26;4.30;99.90
831;DHT22;397;50.564;7.272;2023-02-22T03:50:54;4.30;99.90
831;DHT22;397;50.564;7.272;2023-02-22T03:53:23;4.20;99.90
831;DHT22;397;50.564;7.272;2023-02-22T03:55:52;4.20;99.90
831;DHT22;397;50.564;7.272;2023-02-22T03:58:22;4.20;99.90
831;DHT22;397;50.564;7.272;2023-02-22T04:00:51;4.20;99.90
831;DHT22;397;50.564;7.272;2023-02-22T04:03:19;4.30;99.90
831;DHT22;397;50.564;7.272;2023-02-22T04:05:48;4.30;99.90
831;DHT22;397;50.564;7.272;2023-02-22T04:08:16;4.30;99.90
831;DHT22;397;50.564;7.272;2023-02-22T04:10:44;4.30;99.90
831;DHT22;397;50.564;7.272;2023-02-22T04:13:11;4.30;99.90
831;DHT22;397;50.564;7.272;2023-02-22T04:15:40;4.30;99.90
831;DHT22;397;50.564;7.272;2023-02-22T04:18:07;4.30;99.90
831;DHT22;397;50.564;7.272;2023-02-22T04:20:35;4.40;99.90
831;DHT22;397;50.564;7.272;2023-02-22T04:23:02;4.50;99.90
831;DHT22;397;50.564;7.272;2023-02-22T04:25:30;4.50;99.90
831;DHT22;397;50.564;7.272;2023-02-22T04:27:58;4.40;99.90
831;DHT22;397;50.564;7.272;2023-02-22T04:30:25;4.50;99.90
831;DHT22;397;50.564;7.272;2023-02-22T04:32:55;4.60;99.90
831;DHT22;397;50.564;7.272;2023-02-22T04:35:23;4.60;99.90
831;DHT22;397;50.564;7.272;2023-02-22T04:37:50;4.60;99.90
831;DHT22;397;50.564;7.272;2023-02-22T04:40:18;4.70;99.90
831;DHT22;397;50.564;7.272;2023-02-22T04:42:46;4.60;99.90
831;DHT22;397;50.564;7.272;2023-02-22T04:45:13;4.60;99.90
831;DHT22;397;50.564;7.272;2023-02-22T04:47:40;4.70;99.90
831;DHT22;397;50.564;7.272;2023-02-22T04:50:09;4.70;99.90
831;DHT22;397;50.564;7.272;2023-02-22T04:52:37;4.70;99.90
831;DHT22;397;50.564;7.272;2023-02-22T04:55:05;4.60;99.90
831;DHT22;397;50.564;7.272;2023-02-22T04:57:33;4.50;99.90
831;DHT22;397;50.564;7.272;2023-02-22T05:00:00;4.50;99.90
831;DHT22;397;50.564;7.272;2023-02-22T05:02:28;4.60;99.90
831;DHT22;397;50.564;7.272;2023-02-22T05:04:56;4.70;99.90
831;DHT22;397;50.564;7.272;2023-02-22T05:07:23;4.60;99.90
831;DHT22;397;50.564;7.272;2023-02-22T05:09:51;4.60;99.90
831;DHT22;397;50.564;7.272;2023-02-22T05:12:18;4.50;99.90
831;DHT22;397;50.564;7.272;2023-02-22T05:14:46;4.60;99.90
831;DHT22;397;50.564;7.272;2023-02-22T05:17:14;4.70;99.90
831;DHT22;397;50.564;7.272;2023-02-22T05:19:41;4.80;99.90
831;DHT22;397;50.564;7.272;2023-02-22T05:22:09;4.90;99.90
831;DHT22;397;50.564;7.272;2023-02-22T05:24:36;4.90;99.90
831;DHT22;397;50.564;7.272;2023-02-22T05:27:04;5.00;99.90
831;DHT22;397;50.564;7.272;2023-02-22T05:29:31;4.90;99.90
831;DHT22;397;50.564;7.272;2023-02-22T05:31:59;4.80;99.90
831;DHT22;397;50.564;7.272;2023-02-22T05:34:27;4.90;99.90
831;DHT22;397;50.564;7.272;2023-02-22T05:36:56;4.90;99.90
831;DHT22;397;50.564;7.272;2023-02-22T05:39:23;4.80;99.90
831;DHT22;397;50.564;7.272;2023-02-22T05:41:51;4.70;99.90
831;DHT22;397;50.564;7.272;2023-02-22T05:44:18;4.60;99.90
831;DHT22;397;50.564;7.272;2023-02-22T05:46:46;4.60;99.90
831;DHT22;397;50.564;7.272;2023-02-22T05:49:13;4.70;99.90
831;DHT22;397;50.564;7.272;2023-02-22T05:51:41;4.60;99.90
831;DHT22;397;50.564;7.272;2023-02-22T05:54:09;4.70;99.90
831;DHT22;397;50.564;7.272;2023-02-22T05:56:36;4.60;99.90
831;DHT22;397;50.564;7.272;2023-02-22T05:59:04;4.70;99.90
831;DHT22;397;50.564;7.272;2023-02-22T06:01:31;4.90;99.90
831;DHT22;397;50.564;7.272;2023-02-22T06:03:59;4.90;99.90
831;DHT22;397;50.564;7.272;2023-02-22T06:06:26;5.00;99.90
831;DHT22;397;50.564;7.272;2023-02-22T06:08:53;5.00;99.90
831;DHT22;397;50.564;7.272;2023-02-22T06:11:21;4.90;99.90
831;DHT22;397;50.564;7.272;2023-02-22T06:13:50;4.90;99.90
831;DHT22;397;50.564;7.272;2023-02-22T06:16:19;4.80;99.90
831;DHT22;397;50.564;7.272;2023-02-22T06:18:48;4.70;99.90
831;DHT22;397;50.564;7.272;2023-02-22T06:21:16;4.70;99.90
831;DHT22;397;50.564;7.272;2023-02-22T06:23:44;4.80;99.90
831;DHT22;397;50.564;7.272;2023-02-22T06:26:14;4.80;99.90
831;DHT22;397;50.564;7.272;2023-02-22T06:28:40;4.90;99.90
831;DHT22;397;50.564;7.272;2023-02-22T06:31:08;4.80;99.90
831;DHT22;397;50.564;7.272;2023-02-22T06:33:35;4.70;99.90
831;DHT22;397;50.564;7.272;2023-02-22T06:36:03;4.80;99.90
831;DHT22;397;50.564;7.272;2023-02-22T06:38:31;4.80;99.90
831;DHT22;397;50.564;7.272;2023-02-22T06:40:59;4.80;99.90
831;DHT22;397;50.564;7.272;2023-02-22T06:43:28;4.70;99.90
831;DHT22;397;50.564;7.272;2023-02-22T06:45:55;4.80;99.90
831;DHT22;397;50.564;7.272;2023-02-22T06:48:23;4.80;99.90
831;DHT22;397;50.564;7.272;2023-02-22T06:50:50;4.90;99.90
831;DHT22;397;50.564;7.272;2023-02-22T06:53:18;4.80;99.90
831;DHT22;397;50.564;7.272;2023-02-22T06:55:45;4.90;99.90
831;DHT22;397;50.564;7.272;2023-02-22T06:58:13;5.00;99.90
831;DHT22;397;50.564;7.272;2023-02-22T07:00:41;5.00;99.90
831;DHT22;397;50.564;7.272;2023-02-22T07:03:10;5.00;99.90
831;DHT22;397;50.564;7.272;2023-02-22T07:05:39;5.00;99.90
831;DHT22;397;50.564;7.272;2023-02-22T07:08:07;5.00;99.90
831;DHT22;397;50.564;7.272;2023-02-22T07:10:36;5.00;99.90
831;DHT22;397;50.564;7.272;2023-02-22T07:13:05;5.20;99.90
831;DHT22;397;50.564;7.272;2023-02-22T07:15:34;5.20;99.90
831;DHT22;397;50.564;7.272;2023-02-22T07:18:02;5.20;99.90
831;DHT22;397;50.564;7.272;2023-02-22T07:20:30;5.20;99.90
831;DHT22;397;50.564;7.272;2023-02-22T07:22:58;5.20;99.90
831;DHT22;397;50.564;7.272;2023-02-22T07:25:27;4.90;99.90
831;DHT22;397;50.564;7.272;2023-02-22T07:27:54;4.70;99.90
831;DHT22;397;50.564;7.272;2023-02-22T07:30:24;4.50;99.90
831;DHT22;397;50.564;7.272;2023-02-22T07:32:54;4.50;99.90
831;DHT22;397;50.564;7.272;2023-02-22T07:35:42;4.50;99.90
831;DHT22;397;50.564;7.272;2023-02-22T07:38:06;4.70;99.90
831;DHT22;397;50.564;7.272;2023-02-22T07:40:34;5.00;99.90
831;DHT22;397;50.564;7.272;2023-02-22T07:43:04;5.10;99.90
831;DHT22;397;50.564;7.272;2023-02-22T07:45:33;5.20;99.90
831;DHT22;397;50.564;7.272;2023-02-22T07:48:03;4.80;99.90
831;DHT22;397;50.564;7.272;2023-02-22T07:50:33;4.90;99.90
831;DHT22;397;50.564;7.272;2023-02-22T07:53:03;4.80;99.90
831;DHT22;397;50.564;7.272;2023-02-22T07:55:32;5.00;99.90
831;DHT22;397;50.564;7.272;2023-02-22T07:58:03;5.00;99.90
831;DHT22;397;50.564;7.272;2023-02-22T08:00:37;5.10;99.90
831;DHT22;397;50.564;7.272;2023-02-22T08:03:03;5.20;99.90
831;DHT22;397;50.564;7.272;2023-02-22T08:05:32;5.40;99.90
831;DHT22;397;50.564;7.272;2023-02-22T08:08:00;5.50;99.90
831;DHT22;397;50.564;7.272;2023-02-22T08:10:28;5.70;99.90
831;DHT22;397;50.564;7.272;2023-02-22T08:12:56;5.80;99.90
831;DHT22;397;50.564;7.272;2023-02-22T08:15:34;5.80;99.90
831;DHT22;397;50.564;7.272;2023-02-22T08:17:58;5.50;99.90
831;DHT22;397;50.564;7.272;2023-02-22T08:20:27;5.70;99.90
831;DHT22;397;50.564;7.272;2023-02-22T08:22:56;6.00;99.90
831;DHT22;397;50.564;7.272;2023-02-22T08:25:26;6.00;99.90
831;DHT22;397;50.564;7.272;2023-02-22T08:28:03;6.20;99.90
831;DHT22;397;50.564;7.272;2023-02-22T08:30:32;6.40;99.90
831;DHT22;397;50.564;7.272;2023-02-22T08:33:00;6.60;99.90
831;DHT22;397;50.564;7.272;2023-02-22T08:35:30;6.90;99.90
831;DHT22;397;50.564;7.272;2023-02-22T08:38:04;7.00;99.90
831;DHT22;397;50.564;7.272;2023-02-22T08:40:31;6.90;99.90
831;DHT22;397;50.564;7.272;2023-02-22T08:42:59;6.80;99.90
831;DHT22;397;50.564;7.272;2023-02-22T08:45:27;7.10;99.90
831;DHT22;397;50.564;7.272;2023-02-22T08:47:54;7.10;99.90
831;DHT22;397;50.564;7.272;2023-02-22T08:50:28;7.20;99.90
831;DHT22;397;50.564;7.272;2023-02-22T08:52:57;7.20;99.90
831;DHT22;397;50.564;7.272;2023-02-22T08:55:27;7.30;99.90
831;DHT22;397;50.564;7.272;2023-02-22T08:57:58;7.10;99.90
831;DHT22;397;50.564;7.272;2023-02-22T09:00:29;7.40;99.90
831;DHT22;397;50.564;7.272;2023-02-22T09:03:06;7.60;99.90
831;DHT22;397;50.564;7.272;2023-02-22T09:05:34;7.70;99.90
831;DHT22;397;50.564;7.272;2023-02-22T09:08:01;7.50;99.90
831;DHT22;397;50.564;7.272;2023-02-22T09:10:31;7.60;99.90
831;DHT22;397;50.564;7.272;2023-02-22T09:12:59;7.30;99.90
831;DHT22;397;50.564;7.272;2023-02-22T09:15:28;7.60;99.90
831;DHT22;397;50.564;7.272;2023-02-22T09:17:56;7.80;99.90
831;DHT22;397;50.564;7.272;2023-02-22T09:20:24;7.90;99.90
831;DHT22;397;50.564;7.272;2023-02-22T09:22:52;7.80;99.90
831;DHT22;397;50.564;7.272;2023-02-22T09:25:21;7.70;99.90
831;DHT22;397;50.564;7.272;2023-02-22T09:27:51;7.80;99.90
831;DHT22;397;50.564;7.272;2023-02-22T09:30:24;7.70;99.90
831;DHT22;397;50.564;7.272;2023-02-22T09:32:54;7.90;99.90
831;DHT22;397;50.564;7.272;2023-02-22T09:35:22;8.10;99.90
831;DHT22;397;50.564;7.272;2023-02-22T09:37:53;8.30;99.90
831;DHT22;397;50.564;7.272;2023-02-22T09:40:22;8.50;99.90
831;DHT22;397;50.564;7.272;2023-02-22T09:42:55;8.40;99.90
831;DHT22;397;50.564;7.272;2023-02-22T09:45:35;8.50;99.90
831;DHT22;397;50.564;7.272;2023-02-22T09:48:02;8.60;99.90
831;DHT22;397;50.564;7.272;2023-02-22T09:50:38;8.90;99.90
831;DHT22;397;50.564;7.272;2023-02-22T09:55:50;9.00;99.90
831;DHT22;397;50.564;7.272;2023-02-22T09:58:38;8.90;99.90
831;DHT22;397;50.564;7.272;2023-02-22T10:01:25;8.90;99.90
831;DHT22;397;50.564;7.272;2023-02-22T10:04:18;8.70;99.90
831;DHT22;397;50.564;7.272;2023-02-22T10:06:58;8.60;99.90
831;DHT22;397;50.564;7.272;2023-02-22T10:09:25;8.50;99.90
831;DHT22;397;50.564;7.272;2023-02-22T10:25:44;8.60;99.90
831;DHT22;397;50.564;7.272;2023-02-22T10:28:22;8.80;99.90
831;DHT22;397;50.564;7.272;2023-02-22T10:30:56;8.80;99.90
831;DHT22;397;50.564;7.272;2023-02-22T10:33:27;8.80;99.90
831;DHT22;397;50.564;7.272;2023-02-22T10:35:55;8.60;99.90
831;DHT22;397;50.564;7.272;2023-02-22T10:38:25;8.60;99.90
831;DHT22;397;50.564;7.272;2023-02-22T10:41:02;8.70;99.90
831;DHT22;397;50.564;7.272;2023-02-22T10:43:30;8.60;99.90
831;DHT22;397;50.564;7.272;2023-02-22T10:46:01;8.60;99.90
831;DHT22;397;50.564;7.272;2023-02-22T10:48:31;8.60;99.90
831;DHT22;397;50.564;7.272;2023-02-22T10:51:02;8.90;99.90
831;DHT22;397;50.564;7.272;2023-02-22T10:53:30;9.10;99.90
831;DHT22;397;50.564;7.272;2023-02-22T10:56:07;9.20;99.90
831;DHT22;397;50.564;7.272;2023-02-22T10:58:55;9.30;99.90
831;DHT22;397;50.564;7.272;2023-02-22T11:04:15;9.30;99.90
831;DHT22;397;50.564;7.272;2023-02-22T11:06:46;9.60;99.90
831;DHT22;397;50.564;7.272;2023-02-22T11:09:17;9.80;99.90
831;DHT22;397;50.564;7.272;2023-02-22T11:11:48;9.70;99.90
831;DHT22;397;50.564;7.272;2023-02-22T11:14:28;9.70;99.90
831;DHT22;397;50.564;7.272;2023-02-22T11:16:57;9.80;99.90
831;DHT22;397;50.564;7.272;2023-02-22T11:19:31;9.90;99.90
831;DHT22;397;50.564;7.272;2023-02-22T11:24:31;10.00;99.90
831;DHT22;397;50.564;7.272;2023-02-22T11:27:03;9.90;99.90
831;DHT22;397;50.564;7.272;2023-02-22T11:29:36;10.00;99.90
831;DHT22;397;50.564;7.272;2023-02-22T11:32:12;10.00;99.90
831;DHT22;397;50.564;7.272;2023-02-22T11:34:41;10.10;99.90
831;DHT22;397;50.564;7.272;2023-02-22T11:40:05;9.80;99.90
831;DHT22;397;50.564;7.272;2023-02-22T11:42:33;9.80;99.90
831;DHT22;397;50.564;7.272;2023-02-22T11:45:13;9.90;99.90
831;DHT22;397;50.564;7.272;2023-02-22T11:47:57;10.00;99.90
831;DHT22;397;50.564;7.272;2023-02-22T11:50:27;10.10;99.90
831;DHT22;397;50.564;7.272;2023-02-22T11:53:07;10.20;99.90
831;DHT22;397;50.564;7.272;2023-02-22T11:55:43;10.30;99.90
831;DHT22;397;50.564;7.272;2023-02-22T12:01:07;10.50;99.90
831;DHT22;397;50.564;7.272;2023-02-22T12:03:50;10.60;99.90
831;DHT22;397;50.564;7.272;2023-02-22T12:06:35;10.80;99.90
831;DHT22;397;50.564;7.272;2023-02-22T12:20:31;11.00;99.90
831;DHT22;397;50.564;7.272;2023-02-22T12:23:05;11.10;99.90
831;DHT22;397;50.564;7.272;2023-02-22T12:25:38;11.20;99.90
831;DHT22;397;50.564;7.272;2023-02-22T12:30:40;11.20;99.90
831;DHT22;397;50.564;7.272;2023-02-22T12:33:17;11.20;99.90
831;DHT22;397;50.564;7.272;2023-02-22T12:35:43;11.30;99.90
831;DHT22;397;50.564;7.272;2023-02-22T12:38:42;11.40;99.90
831;DHT22;397;50.564;7.272;2023-02-22T12:41:43;11.50;99.90
831;DHT22;397;50.564;7.272;2023-02-22T12:44:17;11.50;99.90
831;DHT22;397;50.564;7.272;2023-02-22T12:46:50;11.60;99.90
831;DHT22;397;50.564;7.272;2023-02-22T12:49:33;11.70;99.90
831;DHT22;397;50.564;7.272;2023-02-22T12:58:05;12.00;99.90
831;DHT22;397;50.564;7.272;2023-02-22T13:00:42;12.10;99.90
831;DHT22;397;50.564;7.272;2023-02-22T13:05:45;12.20;99.90
831;DHT22;397;50.564;7.272;2023-02-22T13:08:28;12.20;99.90
831;DHT22;397;50.564;7.272;2023-02-22T13:11:00;12.30;99.90
831;DHT22;397;50.564;7.272;2023-02-22T13:13:35;12.40;99.90
831;DHT22;397;50.564;7.272;2023-02-22T13:16:12;12.50;99.90
831;DHT22;397;50.564;7.272;2023-02-22T13:19:02;12.60;99.90
831;DHT22;397;50.564;7.272;2023-02-22T13:22:18;12.60;99.90
831;DHT22;397;50.564;7.272;2023-02-22T13:24:25;12.70;99.90
831;DHT22;397;50.564;7.272;2023-02-22T13:27:08;12.70;99.90
831;DHT22;397;50.564;7.272;2023-02-22T13:29:40;12.70;99.90
831;DHT22;397;50.564;7.272;2023-02-22T13:38:05;13.00;99.90
831;DHT22;397;50.564;7.272;2023-02-22T13:43:27;13.20;99.90
831;DHT22;397;50.564;7.272;2023-02-22T13:51:47;13.40;99.90
831;DHT22;397;50.564;7.272;2023-02-22T13:54:34;13.50;99.90
831;DHT22;397;50.564;7.272;2023-02-22T13:56:57;13.50;99.90
831;DHT22;397;50.564;7.272;2023-02-22T13:59:35;13.50;99.90
831;DHT22;397;50.564;7.272;2023-02-22T14:02:05;13.50;99.90
831;DHT22;397;50.564;7.272;2023-02-22T14:04:36;13.50;99.90
831;DHT22;397;50.564;7.272;2023-02-22T14:09:54;13.50;99.90
831;DHT22;397;50.564;7.272;2023-02-22T14:17:51;13.50;99.90
831;DHT22;397;50.564;7.272;2023-02-22T14:20:32;13.50;99.90
831;DHT22;397;50.564;7.272;2023-02-22T14:22:53;13.50;99.90
831;DHT22;397;50.564;7.272;2023-02-22T14:25:38;13.40;99.90
831;DHT22;397;50.564;7.272;2023-02-22T14:28:09;13.40;99.90
831;DHT22;397;50.564;7.272;2023-02-22T14:30:38;13.40;99.90
831;DHT22;397;50.564;7.272;2023-02-22T14:35:53;13.20;99.90
831;DHT22;397;50.564;7.272;2023-02-22T14:38:20;13.20;99.90
831;DHT22;397;50.564;7.272;2023-02-22T14:40:49;13.30;99.90
831;DHT22;397;50.564;7.272;2023-02-22T14:43:20;13.20;99.90
831;DHT22;397;50.564;7.272;2023-02-22T14:45:55;13.30;99.90
831;DHT22;397;50.564;7.272;2023-02-22T14:48:25;13.40;99.90
831;DHT22;397;50.564;7.272;2023-02-22T14:50:58;13.50;99.90
831;DHT22;397;50.564;7.272;2023-02-22T14:53:43;13.50;99.90
831;DHT22;397;50.564;7.272;2023-02-22T14:56:23;13.50;99.90
831;DHT22;397;50.564;7.272;2023-02-22T14:58:54;13.50;99.90
831;DHT22;397;50.564;7.272;2023-02-22T15:01:24;13.50;99.90
831;DHT22;397;50.564;7.272;2023-02-22T15:03:52;13.60;99.90
831;DHT22;397;50.564;7.272;2023-02-22T15:06:24;13.60;99.90
831;DHT22;397;50.564;7.272;2023-02-22T15:09:10;13.60;99.90
831;DHT22;397;50.564;7.272;2023-02-22T15:11:36;13.60;99.90
831;DHT22;397;50.564;7.272;2023-02-22T15:14:16;13.70;99.90
831;DHT22;397;50.564;7.272;2023-02-22T15:16:44;13.70;99.90
831;DHT22;397;50.564;7.272;2023-02-22T15:19:11;13.70;99.90
831;DHT22;397;50.564;7.272;2023-02-22T15:21:46;13.70;99.90
831;DHT22;397;50.564;7.272;2023-02-22T15:24:26;13.60;99.90
831;DHT22;397;50.564;7.272;2023-02-22T15:26:55;13.60;99.90
831;DHT22;397;50.564;7.272;2023-02-22T15:29:28;13.60;99.90
831;DHT22;397;50.564;7.272;2023-02-22T15:31:54;13.60;99.90
831;DHT22;397;50.564;7.272;2023-02-22T15:34:27;13.50;99.90
831;DHT22;397;50.564;7.272;2023-02-22T15:36:57;13.50;99.90
831;DHT22;397;50.564;7.272;2023-02-22T15:39:32;13.50;99.90
831;DHT22;397;50.564;7.272;2023-02-22T15:42:05;13.50;99.90
831;DHT22;397;50.564;7.272;2023-02-22T15:44:40;13.40;99.90
831;DHT22;397;50.564;7.272;2023-02-22T15:47:18;13.30;99.90
831;DHT22;397;50.564;7.272;2023-02-22T15:49:42;13.10;99.90
831;DHT22;397;50.564;7.272;2023-02-22T15:52:16;13.10;99.90
831;DHT22;397;50.564;7.272;2023-02-22T15:54:50;13.20;99.90
831;DHT22;397;50.564;7.272;2023-02-22T15:57:20;13.20;99.90
831;DHT22;397;50.564;7.272;2023-02-22T15:59:54;13.10;99.90
831;DHT22;397;50.564;7.272;2023-02-22T16:02:29;13.10;99.90
831;DHT22;397;50.564;7.272;2023-02-22T16:05:11;13.00;99.90
831;DHT22;397;50.564;7.272;2023-02-22T16:07:41;13.00;99.90
831;DHT22;397;50.564;7.272;2023-02-22T16:10:28;12.90;99.90
831;DHT22;397;50.564;7.272;2023-02-22T16:13:04;12.90;99.90
831;DHT22;397;50.564;7.272;2023-02-22T16:15:33;12.90;99.90
831;DHT22;397;50.564;7.272;2023-02-22T16:19:13;12.80;99.90
831;DHT22;397;50.564;7.272;2023-02-22T16:20:47;12.70;99.90
831;DHT22;397;50.564;7.272;2023-02-22T16:23:24;12.60;99.90
831;DHT22;397;50.564;7.272;2023-02-22T16:26:03;12.60;99.90
831;DHT22;397;50.564;7.272;2023-02-22T16:28:31;12.50;99.90
831;DHT22;397;50.564;7.272;2023-02-22T16:31:01;12.50;99.90
831;DHT22;397;50.564;7.272;2023-02-22T16:33:29;12.50;99.90
831;DHT22;397;50.564;7.272;2023-02-22T16:36:06;12.40;99.90
831;DHT22;397;50.564;7.272;2023-02-22T16:38:42;12.40;99.90
831;DHT22;397;50.564;7.272;2023-02-22T16:41:12;12.30;99.90
831;DHT22;397;50.564;7.272;2023-02-22T16:43:42;12.30;99.90
831;DHT22;397;50.564;7.272;2023-02-22T16:46:12;12.30;99.90
831;DHT22;397;50.564;7.272;2023-02-22T16:48:42;12.20;99.90
831;DHT22;397;50.564;7.272;2023-02-22T16:51:27;12.20;99.90
831;DHT22;397;50.564;7.272;2023-02-22T16:53:55;12.10;99.90
831;DHT22;397;50.564;7.272;2023-02-22T16:56:29;12.10;99.90
831;DHT22;397;50.564;7.272;2023-02-22T16:58:54;12.00;99.90
831;DHT22;397;50.564;7.272;2023-02-22T17:01:22;11.90;99.90
831;DHT22;397;50.564;7.272;2023-02-22T17:03:49;11.90;99.90
831;DHT22;397;50.564;7.272;2023-02-22T17:06:20;11.80;99.90
831;DHT22;397;50.564;7.272;2023-02-22T17:08:48;11.80;99.90
831;DHT22;397;50.564;7.272;2023-02-22T17:11:17;11.90;99.90
831;DHT22;397;50.564;7.272;2023-02-22T17:13:45;11.90;99.90
831;DHT22;397;50.564;7.272;2023-02-22T17:16:14;11.80;99.90
831;DHT22;397;50.564;7.272;2023-02-22T17:18:42;11.70;99.90
831;DHT22;397;50.564;7.272;2023-02-22T17:21:11;11.60;99.90
831;DHT22;397;50.564;7.272;2023-02-22T17:23:39;11.70;99.90
831;DHT22;397;50.564;7.272;2023-02-22T17:26:06;11.60;99.90
831;DHT22;397;50.564;7.272;2023-02-22T17:28:34;11.50;99.90
831;DHT22;397;50.564;7.272;2023-02-22T17:31:01;11.50;99.90
831;DHT22;397;50.564;7.272;2023-02-22T17:33:31;11.60;99.90
831;DHT22;397;50.564;7.272;2023-02-22T17:36:00;11.50;99.90
831;DHT22;397;50.564;7.272;2023-02-22T17:38:29;11.60;99.90
831;DHT22;397;50.564;7.272;2023-02-22T17:40:58;11.60;99.90
831;DHT22;397;50.564;7.272;2023-02-22T17:43:27;11.50;99.90
831;DHT22;397;50.564;7.272;2023-02-22T17:45:55;11.50;99.90
831;DHT22;397;50.564;7.272;2023-02-22T17:48:24;11.50;99.90
831;DHT22;397;50.564;7.272;2023-02-22T17:50:52;11.50;99.90
831;DHT22;397;50.564;7.272;2023-02-22T17:53:20;11.60;99.90
831;DHT22;397;50.564;7.272;2023-02-22T17:55:50;11.60;99.90
831;DHT22;397;50.564;7.272;2023-02-22T17:58:18;11.50;99.90
831;DHT22;397;50.564;7.272;2023-02-22T18:00:48;11.40;99.90
831;DHT22;397;50.564;7.272;2023-02-22T18:03:19;11.40;99.90
831;DHT22;397;50.564;7.272;2023-02-22T18:05:52;11.40;99.90
831;DHT22;397;50.564;7.272;2023-02-22T18:08:22;11.40;99.90
831;DHT22;397;50.564;7.272;2023-02-22T18:10:50;11.40;99.90
831;DHT22;397;50.564;7.272;2023-02-22T18:13:26;11.40;99.90
831;DHT22;397;50.564;7.272;2023-02-22T18:15:56;11.40;99.90
831;DHT22;397;50.564;7.272;2023-02-22T18:18:25;11.30;99.90
831;DHT22;397;50.564;7.272;2023-02-22T18:20:53;11.30;99.90
831;DHT22;397;50.564;7.272;2023-02-22T18:23:22;11.30;99.90
831;DHT22;397;50.564;7.272;2023-02-22T18:25:52;11.30;99.90
831;DHT22;397;50.564;7.272;2023-02-22T18:28:20;11.30;99.90
831;DHT22;397;50.564;7.272;2023-02-22T18:30:49;11.30;99.90
831;DHT22;397;50.564;7.272;2023-02-22T18:33:17;11.30;99.90
831;DHT22;397;50.564;7.272;2023-02-22T18:35:48;11.30;99.90
831;DHT22;397;50.564;7.272;2023-02-22T18:38:19;11.20;99.90
831;DHT22;397;50.564;7.272;2023-02-22T18:41:04;11.20;99.90
831;DHT22;397;50.564;7.272;2023-02-22T18:43:28;11.10;99.90
831;DHT22;397;50.564;7.272;2023-02-22T18:48:37;11.10;99.90
831;DHT22;397;50.564;7.272;2023-02-22T18:51:08;11.00;99.90